Address 0xa87c42b4f92436d0821ca6d63eedb7c70f34ae4c 8

Overview

Balance:
0.075896350436731279 MOVR

MOVR Value:
$0.64 (@ $8.37/MOVR)
Txn Hash Method
Block
From
To
Value [Txn Fee]
0xe98586d8d921ec3fd7ab75ab06ff9de025eac392ad4451db10315191d9426542Deposit17525342022-04-27 14:27:54220 days 20 hrs ago0xa87c42b4f92436d0821ca6d63eedb7c70f34ae4cOUT 0x06c30af8a82aaf9cfd319f8644584276bfbec42f0 MOVR0.0001289875
0x6a13b807a28718b98c5a24e7218ad18b2cfea68dd2c9d0ef2d70e8bb83228b94Approve17524932022-04-27 14:12:18220 days 21 hrs ago0xa87c42b4f92436d0821ca6d63eedb7c70f34ae4cOUT Multichain: USDC Token0 MOVR0.0001631385
0xfb8d292c9b31522a224c230256fe750ace02af1fb6f07858823726d655ee4a5fSwap Exact Token...14366062022-02-04 15:36:06302 days 19 hrs ago0xa87c42b4f92436d0821ca6d63eedb7c70f34ae4cOUT Solarbeam: Solar Router0 MOVR0.00015177
0xe43f6595944d730f600bd68d705febdc0e946e47171cf7e41e52c787eb19fa03Withdraw14366032022-02-04 15:35:30302 days 19 hrs ago0xa87c42b4f92436d0821ca6d63eedb7c70f34ae4cOUT Solarbeam: Solar Vault0 MOVR0.0002712475
0x1f938ccaf55f9ee45aae45a71fd16e5bf33ddb1ef749419c06615aaa15866c7dSwap Exact ETH F...11755772021-12-27 18:30:12341 days 16 hrs ago0xa87c42b4f92436d0821ca6d63eedb7c70f34ae4cOUT Solarbeam: Solar Router1.2 MOVR0.00020411
0x141fcc1476e8c6fc406641b2e2c18f9fb287aa0eacbdc3e48dc7d0ca8b16a5b5Swap Exact Token...11755472021-12-27 18:22:42341 days 17 hrs ago0xa87c42b4f92436d0821ca6d63eedb7c70f34ae4cOUT Solarbeam: Solar Router0 MOVR0.00015183
0x97df00b91b7e8b2a18115421cee9fc6a7acfc56709c0dffbe420e6acc2ac0128Swap Exact Token...11755462021-12-27 18:22:24341 days 17 hrs ago0xa87c42b4f92436d0821ca6d63eedb7c70f34ae4cOUT Solarbeam: Solar Router0 MOVR0.0002887325
0x5ad689b2cd2d0858cbf1b54bf1dedf3313456ae23886eed1030d09bf0836c205Remove Liquidity...11755432021-12-27 18:21:48341 days 17 hrs ago0xa87c42b4f92436d0821ca6d63eedb7c70f34ae4cOUT Solarbeam: Solar Router0 MOVR0.000166968
0xff1b97d9a259e31fa6933d967b32b398fc5dc26745f2c3f7ceb9776b443098f1Withdraw11755392021-12-27 18:21:00341 days 17 hrs ago0xa87c42b4f92436d0821ca6d63eedb7c70f34ae4cOUT 0xfada8cc923514f1d7b0586ad554b4a0cead4680e0 MOVR0.000210832
0x715593aaf1eff6f4ce839f3a3bcb385e2b6c891c00e72d70797b3c221153c597Remove Liquidity...11755352021-12-27 18:20:12341 days 17 hrs ago0xa87c42b4f92436d0821ca6d63eedb7c70f34ae4cOUT Solarbeam: Solar Router0 MOVR0.0003662075
0x8b7861810238072205d4a5d74652300e1f568198c6c4c5cd2efb75f204e7791eWithdraw11755292021-12-27 18:19:00341 days 17 hrs ago0xa87c42b4f92436d0821ca6d63eedb7c70f34ae4cOUT 0x0329867a8c457e9f75e25b0685011291cd30904f0 MOVR0.0003820825
0xf2ab4a365af6789c479591b6799cb4eb545c07db49fafef0d387ec3283fe8e4eSwap Exact Token...11328282021-12-21 9:55:48348 days 1 hr ago0xa87c42b4f92436d0821ca6d63eedb7c70f34ae4cOUT Huckleberry Finance: Router0 MOVR0.000570426
0x2906dc52f9d92fe789c129f6737dfda3b373951a64454d7857540157ae4b7ffeUnstake11328222021-12-21 9:54:36348 days 1 hr ago0xa87c42b4f92436d0821ca6d63eedb7c70f34ae4cOUT FantOHM DAO: Staking0 MOVR0.000064193
0x9d4e0fcba7c3238c5451a4890161cf698bb60feaace90a1325a5beedaa86acd4Stake9964572021-11-30 22:09:30368 days 13 hrs ago0xa87c42b4f92436d0821ca6d63eedb7c70f34ae4cOUT FantOHM DAO: Staking Helper0 MOVR0.000118072
0xd445e546003cf484f9362dc59599006e2bb7d29dc94ae599f1f91a870cd3c27fApprove9964542021-11-30 22:08:54368 days 13 hrs ago0xa87c42b4f92436d0821ca6d63eedb7c70f34ae4cOUT FantOHM: sFHM Token0 MOVR0.000043988
0x55013648ef18f3b67b177af26ff9b301db8ed1bb093c49324016f06e70662664Approve9964542021-11-30 22:08:54368 days 13 hrs ago0xa87c42b4f92436d0821ca6d63eedb7c70f34ae4cOUT FantOHM: FHM Token0 MOVR0.000044067
0xcb32b965ee2f3bb84a5f2102211d6b51a0977f7377a4f46f02411e513343b8f8Swap Exact ETH F...9964532021-11-30 22:08:42368 days 13 hrs ago0xa87c42b4f92436d0821ca6d63eedb7c70f34ae4cOUT Huckleberry Finance: Router0.2 MOVR0.0003503115
0x499bee6540bdf1c5e4ba9dec0dc3c1db271c9ab03ecaa5e674a207e543af810eSwap Exact Token...9964442021-11-30 22:05:42368 days 13 hrs ago0xa87c42b4f92436d0821ca6d63eedb7c70f34ae4cOUT Solarbeam: Solar Router0 MOVR0.000193325
0x6cb33a5c2b1bc836237a42b5179b3508f5a5997f45bfd0f22819bfee9b662f7eApprove9964402021-11-30 22:04:54368 days 13 hrs ago0xa87c42b4f92436d0821ca6d63eedb7c70f34ae4cOUT Multichain: MIM Token0 MOVR0.0001112775
0x15d1d0182fb4ec56a7a13a4e5511ca781f31ea43874d39980ab8c1bcf029b098Deposit9964212021-11-30 22:00:54368 days 13 hrs ago0xa87c42b4f92436d0821ca6d63eedb7c70f34ae4cOUT Solarbeam: Solar Vault0 MOVR0.0004281875
0x6bd80d23c844f481458121b0374be0138e4e87dfc187f8f8feeabf65de0b2fffDeposit9964192021-11-30 22:00:30368 days 13 hrs ago0xa87c42b4f92436d0821ca6d63eedb7c70f34ae4cOUT 0xfada8cc923514f1d7b0586ad554b4a0cead4680e0 MOVR0.000218942
0x6b57fb02c88249d98e66f957ffbb43e3a8f1f5bf227f6bb0f0c5222d9e54314eApprove9964172021-11-30 22:00:00368 days 13 hrs ago0xa87c42b4f92436d0821ca6d63eedb7c70f34ae4cOUT Solarbeam: SOLAR Token0 MOVR0.000065425
0xf0bc057bcc09c87986d78bce5db63faa6a9514c88090ae6a01659d7dea12385aApprove9964172021-11-30 22:00:00368 days 13 hrs ago0xa87c42b4f92436d0821ca6d63eedb7c70f34ae4cOUT Solarbeam: SOLAR Token0 MOVR0.000113425
0xd43ee2f5615008e3d9b8781a775e05e8e26b7ee55a434013195fb3c528ef6baaApprove9964112021-11-30 21:58:42368 days 13 hrs ago0xa87c42b4f92436d0821ca6d63eedb7c70f34ae4cOUT 0x7eda899b3522683636746a2f3a7814e6ffca75e10 MOVR0.000045244
0x2ae2556d1cccfdf98d1a38c7380f2135ef59a764cb8fc8f3cc09b7fb7e37df05Add Liquidity ET...9964032021-11-30 21:56:54368 days 13 hrs ago0xa87c42b4f92436d0821ca6d63eedb7c70f34ae4cOUT Solarbeam: Solar Router0.60876 MOVR0.000152897
[ Download CSV Export 
Latest 8 internal transactions
Parent Txn Hash Block From To Value
0x5ad689b2cd2d0858cbf1b54bf1dedf3313456ae23886eed1030d09bf0836c20511755432021-12-27 18:21:48341 days 17 hrs ago Solarbeam: Solar Router0xa87c42b4f92436d0821ca6d63eedb7c70f34ae4c0.500603970374332552 MOVR
0x715593aaf1eff6f4ce839f3a3bcb385e2b6c891c00e72d70797b3c221153c59711755352021-12-27 18:20:12341 days 17 hrs ago Solarbeam: Solar Router0xa87c42b4f92436d0821ca6d63eedb7c70f34ae4c0.346804049341528595 MOVR
0xf2ab4a365af6789c479591b6799cb4eb545c07db49fafef0d387ec3283fe8e4e11328282021-12-21 9:55:48348 days 1 hr ago Huckleberry Finance: Router0xa87c42b4f92436d0821ca6d63eedb7c70f34ae4c0.093424923698939188 MOVR
0x499bee6540bdf1c5e4ba9dec0dc3c1db271c9ab03ecaa5e674a207e543af810e9964442021-11-30 22:05:42368 days 13 hrs ago Solarbeam: Solar Router0xa87c42b4f92436d0821ca6d63eedb7c70f34ae4c0.099716641289558718 MOVR
0x2ae2556d1cccfdf98d1a38c7380f2135ef59a764cb8fc8f3cc09b7fb7e37df059964032021-11-30 21:56:54368 days 13 hrs ago Solarbeam: Solar Router0xa87c42b4f92436d0821ca6d63eedb7c70f34ae4c0.000678187307979865 MOVR
0xfef1f062aac5d2c3131d84d15659211f23c37a5ac0d9c59b3460efe58bf2cf939963912021-11-30 21:53:48368 days 13 hrs ago Solarbeam: Solar Router0xa87c42b4f92436d0821ca6d63eedb7c70f34ae4c0.663403561156555632 MOVR
0xa93fd851ba2a90f4d2f6b3d1ef6bec635fd9ff07f231180a7963d9e50ef814779960232021-11-30 20:07:18368 days 15 hrs ago Huckleberry Finance: Router0xa87c42b4f92436d0821ca6d63eedb7c70f34ae4c0.338360636142636284 MOVR
0x2ca0b24fced7813987cdea80e4fe1d810fbbdcbc64e0d5509c1b473f35e81dbe9959912021-11-30 19:58:30368 days 15 hrs ago Solarbeam: Solar Router0xa87c42b4f92436d0821ca6d63eedb7c70f34ae4c0.187204600562360007 MOVR
[ Download CSV Export 
Loading

Contract Name:
0

Compiler Version
0

Optimization Enabled:
0

Other Settings:
-NA-
Block Transaction Gas Used Reward
Age Block Fee Address BC Fee Address Voting Power Jailed Incoming
Block Uncle Number Difficulty Gas Used Reward
Loading
Loading
Make sure to use the "Vote Down" button for any spammy posts, and the "Vote Up" for interesting conversations.